sensor_id;sensor_type;location;lat;lon;timestamp;temperature;humidity
24614;DHT22;12760;46.296;25.290;2023-07-31T00:01:18;21.50;99.90
24614;DHT22;12760;46.296;25.290;2023-07-31T00:03:45;21.50;99.90
24614;DHT22;12760;46.296;25.290;2023-07-31T00:06:11;21.40;99.90
24614;DHT22;12760;46.296;25.290;2023-07-31T00:08:37;21.30;99.90
24614;DHT22;12760;46.296;25.290;2023-07-31T00:11:02;21.20;99.90
24614;DHT22;12760;46.296;25.290;2023-07-31T00:13:28;21.20;99.90
24614;DHT22;12760;46.296;25.290;2023-07-31T00:15:54;21.20;99.90
24614;DHT22;12760;46.296;25.290;2023-07-31T00:18:19;21.30;99.90
24614;DHT22;12760;46.296;25.290;2023-07-31T00:20:45;21.20;99.90
24614;DHT22;12760;46.296;25.290;2023-07-31T00:23:11;21.00;99.90
24614;DHT22;12760;46.296;25.290;2023-07-31T00:25:36;21.00;99.90
24614;DHT22;12760;46.296;25.290;2023-07-31T00:28:02;21.00;99.90
24614;DHT22;12760;46.296;25.290;2023-07-31T00:30:28;21.00;99.90
24614;DHT22;12760;46.296;25.290;2023-07-31T00:32:53;21.00;99.90
24614;DHT22;12760;46.296;25.290;2023-07-31T00:35:19;21.00;99.90
24614;DHT22;12760;46.296;25.290;2023-07-31T00:37:45;21.00;99.90
24614;DHT22;12760;46.296;25.290;2023-07-31T00:40:11;21.10;99.90
24614;DHT22;12760;46.296;25.290;2023-07-31T00:42:36;21.10;99.90
24614;DHT22;12760;46.296;25.290;2023-07-31T00:45:02;21.20;99.90
24614;DHT22;12760;46.296;25.290;2023-07-31T00:47:28;21.20;99.90
24614;DHT22;12760;46.296;25.290;2023-07-31T00:49:54;21.30;99.90
24614;DHT22;12760;46.296;25.290;2023-07-31T00:52:20;21.30;99.90
24614;DHT22;12760;46.296;25.290;2023-07-31T00:54:46;21.20;99.90
24614;DHT22;12760;46.296;25.290;2023-07-31T00:57:12;21.20;99.90
24614;DHT22;12760;46.296;25.290;2023-07-31T00:59:37;21.20;99.90
24614;DHT22;12760;46.296;25.290;2023-07-31T01:02:04;21.30;99.90
24614;DHT22;12760;46.296;25.290;2023-07-31T01:04:30;21.30;99.90
24614;DHT22;12760;46.296;25.290;2023-07-31T01:07:42;21.30;99.90
24614;DHT22;12760;46.296;25.290;2023-07-31T01:09:57;21.30;99.90
24614;DHT22;12760;46.296;25.290;2023-07-31T01:12:27;21.30;99.90
24614;DHT22;12760;46.296;25.290;2023-07-31T01:17:26;21.40;99.90
24614;DHT22;12760;46.296;25.290;2023-07-31T01:19:54;21.30;99.90
24614;DHT22;12760;46.296;25.290;2023-07-31T01:22:27;21.20;99.90
24614;DHT22;12760;46.296;25.290;2023-07-31T01:27:28;21.00;99.90
24614;DHT22;12760;46.296;25.290;2023-07-31T01:30:11;20.90;99.90
24614;DHT22;12760;46.296;25.290;2023-07-31T01:32:42;20.90;99.90
24614;DHT22;12760;46.296;25.290;2023-07-31T01:35:09;20.90;99.90
24614;DHT22;12760;46.296;25.290;2023-07-31T01:37:35;20.90;99.90
24614;DHT22;12760;46.296;25.290;2023-07-31T01:40:01;20.90;99.90
24614;DHT22;12760;46.296;25.290;2023-07-31T01:42:27;20.90;99.90
24614;DHT22;12760;46.296;25.290;2023-07-31T01:44:52;20.90;99.90
24614;DHT22;12760;46.296;25.290;2023-07-31T01:47:18;21.00;99.90
24614;DHT22;12760;46.296;25.290;2023-07-31T01:49:44;21.10;99.90
24614;DHT22;12760;46.296;25.290;2023-07-31T01:52:09;21.10;99.90
24614;DHT22;12760;46.296;25.290;2023-07-31T01:54:35;21.00;99.90
24614;DHT22;12760;46.296;25.290;2023-07-31T01:57:02;21.00;99.90
24614;DHT22;12760;46.296;25.290;2023-07-31T01:59:28;21.00;99.90
24614;DHT22;12760;46.296;25.290;2023-07-31T02:01:54;20.90;99.90
24614;DHT22;12760;46.296;25.290;2023-07-31T02:04:20;20.90;99.90
24614;DHT22;12760;46.296;25.290;2023-07-31T02:06:45;20.80;99.90
24614;DHT22;12760;46.296;25.290;2023-07-31T02:09:11;20.80;99.90
24614;DHT22;12760;46.296;25.290;2023-07-31T02:11:37;20.80;99.90
24614;DHT22;12760;46.296;25.290;2023-07-31T02:14:02;20.80;99.90
24614;DHT22;12760;46.296;25.290;2023-07-31T02:16:28;20.80;99.90
24614;DHT22;12760;46.296;25.290;2023-07-31T02:18:54;20.90;99.90
24614;DHT22;12760;46.296;25.290;2023-07-31T02:21:19;20.80;99.90
24614;DHT22;12760;46.296;25.290;2023-07-31T02:23:45;20.80;99.90
24614;DHT22;12760;46.296;25.290;2023-07-31T02:26:11;20.80;99.90
24614;DHT22;12760;46.296;25.290;2023-07-31T02:28:36;20.80;99.90
24614;DHT22;12760;46.296;25.290;2023-07-31T02:31:02;20.70;99.90
24614;DHT22;12760;46.296;25.290;2023-07-31T02:33:28;20.80;99.90
24614;DHT22;12760;46.296;25.290;2023-07-31T02:35:54;20.70;99.90
24614;DHT22;12760;46.296;25.290;2023-07-31T02:38:19;20.70;99.90
24614;DHT22;12760;46.296;25.290;2023-07-31T02:40:45;20.70;99.90
24614;DHT22;12760;46.296;25.290;2023-07-31T02:43:11;20.90;99.90
24614;DHT22;12760;46.296;25.290;2023-07-31T02:45:36;20.90;99.90
24614;DHT22;12760;46.296;25.290;2023-07-31T02:48:02;20.90;99.90
24614;DHT22;12760;46.296;25.290;2023-07-31T02:50:28;20.90;99.90
24614;DHT22;12760;46.296;25.290;2023-07-31T02:52:54;21.00;99.90
24614;DHT22;12760;46.296;25.290;2023-07-31T02:55:19;21.00;99.90
24614;DHT22;12760;46.296;25.290;2023-07-31T02:57:45;21.00;99.90
24614;DHT22;12760;46.296;25.290;2023-07-31T03:00:11;21.10;99.90
24614;DHT22;12760;46.296;25.290;2023-07-31T03:02:37;21.10;99.90
24614;DHT22;12760;46.296;25.290;2023-07-31T03:05:02;21.10;99.90
24614;DHT22;12760;46.296;25.290;2023-07-31T03:07:28;21.10;99.90
24614;DHT22;12760;46.296;25.290;2023-07-31T03:09:55;21.10;99.90
24614;DHT22;12760;46.296;25.290;2023-07-31T03:12:22;21.10;99.90
24614;DHT22;12760;46.296;25.290;2023-07-31T03:14:47;21.00;99.90
24614;DHT22;12760;46.296;25.290;2023-07-31T03:17:13;20.90;99.90
24614;DHT22;12760;46.296;25.290;2023-07-31T03:19:39;20.80;99.90
24614;DHT22;12760;46.296;25.290;2023-07-31T03:22:05;20.90;99.90
24614;DHT22;12760;46.296;25.290;2023-07-31T03:24:30;20.90;99.90
24614;DHT22;12760;46.296;25.290;2023-07-31T03:26:56;21.00;99.90
24614;DHT22;12760;46.296;25.290;2023-07-31T03:29:22;21.00;99.90
24614;DHT22;12760;46.296;25.290;2023-07-31T03:31:47;21.00;99.90
24614;DHT22;12760;46.296;25.290;2023-07-31T03:34:13;21.00;99.90
24614;DHT22;12760;46.296;25.290;2023-07-31T03:36:39;21.00;99.90
24614;DHT22;12760;46.296;25.290;2023-07-31T03:39:05;21.00;99.90
24614;DHT22;12760;46.296;25.290;2023-07-31T03:41:30;21.00;99.90
24614;DHT22;12760;46.296;25.290;2023-07-31T03:43:56;21.10;99.90
24614;DHT22;12760;46.296;25.290;2023-07-31T03:46:22;21.10;99.90
24614;DHT22;12760;46.296;25.290;2023-07-31T03:48:49;21.10;99.90
24614;DHT22;12760;46.296;25.290;2023-07-31T03:51:14;21.10;99.90
24614;DHT22;12760;46.296;25.290;2023-07-31T03:53:40;21.20;99.90
24614;DHT22;12760;46.296;25.290;2023-07-31T03:56:06;21.20;99.90
24614;DHT22;12760;46.296;25.290;2023-07-31T03:58:31;21.20;99.90
24614;DHT22;12760;46.296;25.290;2023-07-31T04:00:57;21.20;99.90
24614;DHT22;12760;46.296;25.290;2023-07-31T04:03:23;21.20;99.90
24614;DHT22;12760;46.296;25.290;2023-07-31T04:05:48;21.20;99.90
24614;DHT22;12760;46.296;25.290;2023-07-31T04:08:14;21.20;99.90
24614;DHT22;12760;46.296;25.290;2023-07-31T04:10:40;21.20;99.90
24614;DHT22;12760;46.296;25.290;2023-07-31T04:13:05;21.30;99.90
24614;DHT22;12760;46.296;25.290;2023-07-31T04:15:31;21.30;99.90
24614;DHT22;12760;46.296;25.290;2023-07-31T04:17:57;21.30;99.90
24614;DHT22;12760;46.296;25.290;2023-07-31T04:20:22;21.30;99.90
24614;DHT22;12760;46.296;25.290;2023-07-31T04:22:49;21.00;99.90
24614;DHT22;12760;46.296;25.290;2023-07-31T04:25:15;21.00;99.90
24614;DHT22;12760;46.296;25.290;2023-07-31T04:27:40;21.10;99.90
24614;DHT22;12760;46.296;25.290;2023-07-31T04:30:06;21.10;99.90
24614;DHT22;12760;46.296;25.290;2023-07-31T04:32:32;20.90;99.90
24614;DHT22;12760;46.296;25.290;2023-07-31T04:34:58;20.90;99.90
24614;DHT22;12760;46.296;25.290;2023-07-31T04:37:23;21.00;99.90
24614;DHT22;12760;46.296;25.290;2023-07-31T04:39:49;21.00;99.90
24614;DHT22;12760;46.296;25.290;2023-07-31T04:42:15;20.80;99.90
24614;DHT22;12760;46.296;25.290;2023-07-31T04:44:40;20.70;99.90
24614;DHT22;12760;46.296;25.290;2023-07-31T04:47:06;20.70;99.90
24614;DHT22;12760;46.296;25.290;2023-07-31T04:49:32;20.70;99.90
24614;DHT22;12760;46.296;25.290;2023-07-31T04:51:58;20.80;99.90
24614;DHT22;12760;46.296;25.290;2023-07-31T04:54:24;20.70;99.90
24614;DHT22;12760;46.296;25.290;2023-07-31T04:56:49;20.90;99.90
24614;DHT22;12760;46.296;25.290;2023-07-31T04:59:15;21.00;99.90
24614;DHT22;12760;46.296;25.290;2023-07-31T05:01:41;21.10;99.90
24614;DHT22;12760;46.296;25.290;2023-07-31T05:04:07;21.20;99.90
24614;DHT22;12760;46.296;25.290;2023-07-31T05:06:33;21.20;99.90
24614;DHT22;12760;46.296;25.290;2023-07-31T05:08:58;21.30;99.90
24614;DHT22;12760;46.296;25.290;2023-07-31T05:11:24;21.40;99.90
24614;DHT22;12760;46.296;25.290;2023-07-31T05:13:50;21.50;99.90
24614;DHT22;12760;46.296;25.290;2023-07-31T05:16:15;21.50;99.90
24614;DHT22;12760;46.296;25.290;2023-07-31T05:18:41;21.60;99.90
24614;DHT22;12760;46.296;25.290;2023-07-31T05:21:06;21.60;99.90
24614;DHT22;12760;46.296;25.290;2023-07-31T05:23:32;21.70;99.90
24614;DHT22;12760;46.296;25.290;2023-07-31T05:26:05;21.60;99.90
24614;DHT22;12760;46.296;25.290;2023-07-31T05:28:31;21.60;99.90
24614;DHT22;12760;46.296;25.290;2023-07-31T05:31:01;21.70;99.90
24614;DHT22;12760;46.296;25.290;2023-07-31T05:33:27;21.70;99.90
24614;DHT22;12760;46.296;25.290;2023-07-31T05:35:52;21.70;99.90
24614;DHT22;12760;46.296;25.290;2023-07-31T05:38:18;21.70;99.90
24614;DHT22;12760;46.296;25.290;2023-07-31T05:40:44;21.70;99.90
24614;DHT22;12760;46.296;25.290;2023-07-31T05:43:09;21.80;99.90
24614;DHT22;12760;46.296;25.290;2023-07-31T05:45:35;21.70;99.90
24614;DHT22;12760;46.296;25.290;2023-07-31T05:48:02;21.70;99.90
24614;DHT22;12760;46.296;25.290;2023-07-31T05:50:28;21.70;99.90
24614;DHT22;12760;46.296;25.290;2023-07-31T05:52:54;21.70;99.90
24614;DHT22;12760;46.296;25.290;2023-07-31T05:55:19;21.70;99.90
24614;DHT22;12760;46.296;25.290;2023-07-31T05:57:46;21.70;99.90
24614;DHT22;12760;46.296;25.290;2023-07-31T06:00:13;21.80;99.90
24614;DHT22;12760;46.296;25.290;2023-07-31T06:02:38;21.80;99.90
24614;DHT22;12760;46.296;25.290;2023-07-31T06:05:05;21.80;99.90
24614;DHT22;12760;46.296;25.290;2023-07-31T06:07:34;21.90;99.90
24614;DHT22;12760;46.296;25.290;2023-07-31T06:09:59;21.80;99.90
24614;DHT22;12760;46.296;25.290;2023-07-31T06:12:35;21.80;99.90
24614;DHT22;12760;46.296;25.290;2023-07-31T06:15:01;21.80;99.90
24614;DHT22;12760;46.296;25.290;2023-07-31T06:17:28;21.70;99.90
24614;DHT22;12760;46.296;25.290;2023-07-31T06:19:54;21.60;99.90
24614;DHT22;12760;46.296;25.290;2023-07-31T06:22:20;21.70;99.90
24614;DHT22;12760;46.296;25.290;2023-07-31T06:24:46;21.80;99.90
24614;DHT22;12760;46.296;25.290;2023-07-31T06:27:12;21.80;99.90
24614;DHT22;12760;46.296;25.290;2023-07-31T06:29:37;21.80;99.90
24614;DHT22;12760;46.296;25.290;2023-07-31T06:32:03;21.80;99.90
24614;DHT22;12760;46.296;25.290;2023-07-31T06:34:29;21.80;99.90
24614;DHT22;12760;46.296;25.290;2023-07-31T06:36:56;21.80;99.90
24614;DHT22;12760;46.296;25.290;2023-07-31T06:39:22;21.90;99.90
24614;DHT22;12760;46.296;25.290;2023-07-31T06:41:48;22.00;99.90
24614;DHT22;12760;46.296;25.290;2023-07-31T06:44:14;22.00;99.90
24614;DHT22;12760;46.296;25.290;2023-07-31T06:46:39;22.00;99.90
24614;DHT22;12760;46.296;25.290;2023-07-31T06:49:05;21.90;99.90
24614;DHT22;12760;46.296;25.290;2023-07-31T06:51:31;21.90;99.90
24614;DHT22;12760;46.296;25.290;2023-07-31T06:53:57;22.00;99.90
24614;DHT22;12760;46.296;25.290;2023-07-31T06:56:23;22.10;99.90
24614;DHT22;12760;46.296;25.290;2023-07-31T06:58:49;22.20;99.90
24614;DHT22;12760;46.296;25.290;2023-07-31T07:01:15;22.30;99.90
24614;DHT22;12760;46.296;25.290;2023-07-31T07:03:40;22.40;99.90
24614;DHT22;12760;46.296;25.290;2023-07-31T07:06:06;22.50;99.90
24614;DHT22;12760;46.296;25.290;2023-07-31T07:08:32;22.70;99.90
24614;DHT22;12760;46.296;25.290;2023-07-31T07:10:58;22.90;99.90
24614;DHT22;12760;46.296;25.290;2023-07-31T07:13:23;22.90;99.90
24614;DHT22;12760;46.296;25.290;2023-07-31T07:15:50;23.00;99.90
24614;DHT22;12760;46.296;25.290;2023-07-31T07:18:18;23.10;99.90
24614;DHT22;12760;46.296;25.290;2023-07-31T07:20:50;23.20;99.90
24614;DHT22;12760;46.296;25.290;2023-07-31T07:23:17;23.30;99.90
24614;DHT22;12760;46.296;25.290;2023-07-31T07:25:43;23.40;99.90
24614;DHT22;12760;46.296;25.290;2023-07-31T07:28:09;23.50;99.90
24614;DHT22;12760;46.296;25.290;2023-07-31T07:30:35;23.50;99.90
24614;DHT22;12760;46.296;25.290;2023-07-31T07:33:01;23.50;99.90
24614;DHT22;12760;46.296;25.290;2023-07-31T07:35:27;23.50;99.90
24614;DHT22;12760;46.296;25.290;2023-07-31T07:37:52;23.40;99.90
24614;DHT22;12760;46.296;25.290;2023-07-31T07:40:19;23.40;99.90
24614;DHT22;12760;46.296;25.290;2023-07-31T07:42:45;23.50;99.90
24614;DHT22;12760;46.296;25.290;2023-07-31T07:45:11;23.50;99.90
24614;DHT22;12760;46.296;25.290;2023-07-31T07:47:38;23.50;99.90
24614;DHT22;12760;46.296;25.290;2023-07-31T07:50:05;23.50;99.90
24614;DHT22;12760;46.296;25.290;2023-07-31T07:52:30;23.60;99.90
24614;DHT22;12760;46.296;25.290;2023-07-31T07:54:56;23.60;99.90
24614;DHT22;12760;46.296;25.290;2023-07-31T07:57:22;23.50;99.90
24614;DHT22;12760;46.296;25.290;2023-07-31T07:59:47;23.50;99.90
24614;DHT22;12760;46.296;25.290;2023-07-31T08:02:13;23.50;99.90
24614;DHT22;12760;46.296;25.290;2023-07-31T08:04:39;23.60;99.90
24614;DHT22;12760;46.296;25.290;2023-07-31T08:07:04;23.60;99.90
24614;DHT22;12760;46.296;25.290;2023-07-31T08:09:30;23.60;99.90
24614;DHT22;12760;46.296;25.290;2023-07-31T08:11:56;23.60;99.90
24614;DHT22;12760;46.296;25.290;2023-07-31T08:14:27;23.60;99.90
24614;DHT22;12760;46.296;25.290;2023-07-31T08:16:53;23.60;99.90
24614;DHT22;12760;46.296;25.290;2023-07-31T08:19:18;23.70;99.90
24614;DHT22;12760;46.296;25.290;2023-07-31T08:21:44;23.80;99.90
24614;DHT22;12760;46.296;25.290;2023-07-31T08:24:10;23.80;99.90
24614;DHT22;12760;46.296;25.290;2023-07-31T08:26:35;23.80;99.90
24614;DHT22;12760;46.296;25.290;2023-07-31T08:29:01;23.80;99.90
24614;DHT22;12760;46.296;25.290;2023-07-31T08:31:27;23.80;99.90
24614;DHT22;12760;46.296;25.290;2023-07-31T08:33:55;23.80;99.90
24614;DHT22;12760;46.296;25.290;2023-07-31T08:36:22;23.90;99.90
24614;DHT22;12760;46.296;25.290;2023-07-31T08:38:48;24.00;99.90
24614;DHT22;12760;46.296;25.290;2023-07-31T08:41:15;24.00;99.90
24614;DHT22;12760;46.296;25.290;2023-07-31T08:43:44;24.00;99.90
24614;DHT22;12760;46.296;25.290;2023-07-31T08:46:10;24.00;99.90
24614;DHT22;12760;46.296;25.290;2023-07-31T08:48:37;24.10;99.90
24614;DHT22;12760;46.296;25.290;2023-07-31T08:51:04;24.10;99.90
24614;DHT22;12760;46.296;25.290;2023-07-31T08:53:30;24.10;99.90
24614;DHT22;12760;46.296;25.290;2023-07-31T08:55:56;24.20;99.90
24614;DHT22;12760;46.296;25.290;2023-07-31T08:58:24;24.10;99.90
24614;DHT22;12760;46.296;25.290;2023-07-31T09:00:51;24.20;99.90
24614;DHT22;12760;46.296;25.290;2023-07-31T09:03:18;24.20;99.90
24614;DHT22;12760;46.296;25.290;2023-07-31T09:05:46;24.20;99.90
24614;DHT22;12760;46.296;25.290;2023-07-31T09:08:14;24.30;99.90
24614;DHT22;12760;46.296;25.290;2023-07-31T09:10:43;24.30;99.90
24614;DHT22;12760;46.296;25.290;2023-07-31T09:13:14;24.30;99.90
24614;DHT22;12760;46.296;25.290;2023-07-31T09:15:42;24.30;99.90
24614;DHT22;12760;46.296;25.290;2023-07-31T09:18:09;24.40;99.90
24614;DHT22;12760;46.296;25.290;2023-07-31T09:20:35;24.40;99.90
24614;DHT22;12760;46.296;25.290;2023-07-31T09:23:12;24.50;99.90
24614;DHT22;12760;46.296;25.290;2023-07-31T09:25:39;24.50;99.90
24614;DHT22;12760;46.296;25.290;2023-07-31T09:28:10;24.50;99.90
24614;DHT22;12760;46.296;25.290;2023-07-31T09:30:51;24.50;99.90
24614;DHT22;12760;46.296;25.290;2023-07-31T09:33:20;24.50;99.90
24614;DHT22;12760;46.296;25.290;2023-07-31T09:35:46;24.60;99.90
24614;DHT22;12760;46.296;25.290;2023-07-31T09:38:14;24.60;99.90
24614;DHT22;12760;46.296;25.290;2023-07-31T09:40:45;24.70;99.90
24614;DHT22;12760;46.296;25.290;2023-07-31T09:43:13;24.70;99.90
24614;DHT22;12760;46.296;25.290;2023-07-31T09:45:41;24.80;99.90
24614;DHT22;12760;46.296;25.290;2023-07-31T09:48:11;24.80;99.90
24614;DHT22;12760;46.296;25.290;2023-07-31T09:50:38;24.80;99.90
24614;DHT22;12760;46.296;25.290;2023-07-31T09:53:05;25.00;99.90
24614;DHT22;12760;46.296;25.290;2023-07-31T09:55:32;25.10;99.90
24614;DHT22;12760;46.296;25.290;2023-07-31T09:57:58;25.20;99.90
24614;DHT22;12760;46.296;25.290;2023-07-31T10:00:24;25.30;99.90
24614;DHT22;12760;46.296;25.290;2023-07-31T10:02:54;25.30;99.90
24614;DHT22;12760;46.296;25.290;2023-07-31T10:05:24;25.40;99.90
24614;DHT22;12760;46.296;25.290;2023-07-31T10:07:54;25.50;99.90
24614;DHT22;12760;46.296;25.290;2023-07-31T10:10:22;25.60;99.90
24614;DHT22;12760;46.296;25.290;2023-07-31T10:12:49;25.60;99.90
24614;DHT22;12760;46.296;25.290;2023-07-31T10:15:16;25.60;99.90
24614;DHT22;12760;46.296;25.290;2023-07-31T10:17:42;25.50;99.90
24614;DHT22;12760;46.296;25.290;2023-07-31T10:20:08;25.50;99.90
24614;DHT22;12760;46.296;25.290;2023-07-31T10:22:34;25.40;99.90
24614;DHT22;12760;46.296;25.290;2023-07-31T10:25:01;25.40;99.90
24614;DHT22;12760;46.296;25.290;2023-07-31T10:27:27;25.50;99.90
24614;DHT22;12760;46.296;25.290;2023-07-31T10:29:55;25.70;99.90
24614;DHT22;12760;46.296;25.290;2023-07-31T10:32:21;25.90;99.90
24614;DHT22;12760;46.296;25.290;2023-07-31T10:34:48;26.00;99.90
24614;DHT22;12760;46.296;25.290;2023-07-31T10:37:25;25.80;99.90
24614;DHT22;12760;46.296;25.290;2023-07-31T10:40:01;25.90;99.90
24614;DHT22;12760;46.296;25.290;2023-07-31T10:42:48;26.00;99.90
24614;DHT22;12760;46.296;25.290;2023-07-31T10:45:34;26.10;99.90
24614;DHT22;12760;46.296;25.290;2023-07-31T10:48:14;26.10;99.90
24614;DHT22;12760;46.296;25.290;2023-07-31T10:50:48;26.20;99.90
24614;DHT22;12760;46.296;25.290;2023-07-31T10:53:28;26.30;99.90
24614;DHT22;12760;46.296;25.290;2023-07-31T10:55:58;26.40;99.90
24614;DHT22;12760;46.296;25.290;2023-07-31T10:58:24;26.50;99.90
24614;DHT22;12760;46.296;25.290;2023-07-31T11:00:55;26.60;99.90
24614;DHT22;12760;46.296;25.290;2023-07-31T11:03:25;26.70;99.90
24614;DHT22;12760;46.296;25.290;2023-07-31T11:08:30;26.70;99.90
24614;DHT22;12760;46.296;25.290;2023-07-31T11:13:32;26.70;99.90
24614;DHT22;12760;46.296;25.290;2023-07-31T11:15:58;26.80;99.90
24614;DHT22;12760;46.296;25.290;2023-07-31T11:18:26;27.00;99.90
24614;DHT22;12760;46.296;25.290;2023-07-31T11:20:53;27.10;99.90
24614;DHT22;12760;46.296;25.290;2023-07-31T11:23:19;26.90;99.90
24614;DHT22;12760;46.296;25.290;2023-07-31T11:25:46;27.00;99.90
24614;DHT22;12760;46.296;25.290;2023-07-31T11:28:16;27.10;99.90
24614;DHT22;12760;46.296;25.290;2023-07-31T11:30:43;26.90;99.90
24614;DHT22;12760;46.296;25.290;2023-07-31T11:33:11;27.10;99.90
24614;DHT22;12760;46.296;25.290;2023-07-31T11:35:48;27.30;99.90
24614;DHT22;12760;46.296;25.290;2023-07-31T11:38:31;27.40;99.90
24614;DHT22;12760;46.296;25.290;2023-07-31T11:41:02;27.50;99.90
24614;DHT22;12760;46.296;25.290;2023-07-31T11:43:28;27.50;99.90
24614;DHT22;12760;46.296;25.290;2023-07-31T11:45:55;27.50;99.90
24614;DHT22;12760;46.296;25.290;2023-07-31T11:48:26;27.40;99.90
24614;DHT22;12760;46.296;25.290;2023-07-31T11:51:11;27.30;99.90
24614;DHT22;12760;46.296;25.290;2023-07-31T11:53:52;27.30;99.90
24614;DHT22;12760;46.296;25.290;2023-07-31T11:56:20;27.50;99.90
24614;DHT22;12760;46.296;25.290;2023-07-31T11:58:58;27.60;99.90
24614;DHT22;12760;46.296;25.290;2023-07-31T12:01:24;27.60;99.90
24614;DHT22;12760;46.296;25.290;2023-07-31T12:03:53;27.60;99.90
24614;DHT22;12760;46.296;25.290;2023-07-31T12:06:19;27.70;99.90
24614;DHT22;12760;46.296;25.290;2023-07-31T12:08:46;27.70;99.90
24614;DHT22;12760;46.296;25.290;2023-07-31T12:11:12;27.80;99.90
24614;DHT22;12760;46.296;25.290;2023-07-31T12:13:43;27.90;99.90
24614;DHT22;12760;46.296;25.290;2023-07-31T12:16:08;28.00;99.90
24614;DHT22;12760;46.296;25.290;2023-07-31T12:18:36;27.90;99.90
24614;DHT22;12760;46.296;25.290;2023-07-31T12:21:07;27.90;99.90
24614;DHT22;12760;46.296;25.290;2023-07-31T12:23:35;27.90;99.90
24614;DHT22;12760;46.296;25.290;2023-07-31T12:28:30;27.90;99.90
24614;DHT22;12760;46.296;25.290;2023-07-31T12:31:00;28.00;99.90
24614;DHT22;12760;46.296;25.290;2023-07-31T12:33:34;28.10;99.90
24614;DHT22;12760;46.296;25.290;2023-07-31T12:36:06;28.30;99.90
24614;DHT22;12760;46.296;25.290;2023-07-31T12:38:32;28.30;99.90
24614;DHT22;12760;46.296;25.290;2023-07-31T12:40:57;28.40;99.90
24614;DHT22;12760;46.296;25.290;2023-07-31T12:43:23;28.40;99.90
24614;DHT22;12760;46.296;25.290;2023-07-31T12:45:49;28.60;99.90
24614;DHT22;12760;46.296;25.290;2023-07-31T12:48:15;28.80;99.90
24614;DHT22;12760;46.296;25.290;2023-07-31T12:50:40;28.80;99.90
24614;DHT22;12760;46.296;25.290;2023-07-31T12:53:06;28.80;99.90
24614;DHT22;12760;46.296;25.290;2023-07-31T12:55:32;28.90;99.90
24614;DHT22;12760;46.296;25.290;2023-07-31T12:58:00;28.90;99.90
24614;DHT22;12760;46.296;25.290;2023-07-31T13:00:26;28.90;99.90
24614;DHT22;12760;46.296;25.290;2023-07-31T13:02:52;28.80;99.90
24614;DHT22;12760;46.296;25.290;2023-07-31T13:05:17;29.00;99.90
24614;DHT22;12760;46.296;25.290;2023-07-31T13:07:45;28.90;99.90
24614;DHT22;12760;46.296;25.290;2023-07-31T13:10:11;28.90;99.90
24614;DHT22;12760;46.296;25.290;2023-07-31T13:12:37;28.60;99.90
24614;DHT22;12760;46.296;25.290;2023-07-31T13:15:04;28.40;99.90
24614;DHT22;12760;46.296;25.290;2023-07-31T13:17:30;28.30;99.90
24614;DHT22;12760;46.296;25.290;2023-07-31T13:19:55;28.10;99.90
24614;DHT22;12760;46.296;25.290;2023-07-31T13:22:21;28.00;99.90
24614;DHT22;12760;46.296;25.290;2023-07-31T13:24:47;27.90;99.90
24614;DHT22;12760;46.296;25.290;2023-07-31T13:27:13;27.80;99.90
24614;DHT22;12760;46.296;25.290;2023-07-31T13:29:42;27.80;99.90
24614;DHT22;12760;46.296;25.290;2023-07-31T13:32:07;27.70;99.90
24614;DHT22;12760;46.296;25.290;2023-07-31T13:34:33;27.50;99.90
24614;DHT22;12760;46.296;25.290;2023-07-31T13:36:59;27.10;99.90
24614;DHT22;12760;46.296;25.290;2023-07-31T13:39:24;26.80;99.90
24614;DHT22;12760;46.296;25.290;2023-07-31T13:41:50;26.70;99.90
24614;DHT22;12760;46.296;25.290;2023-07-31T13:44:16;26.50;99.90
24614;DHT22;12760;46.296;25.290;2023-07-31T13:46:41;26.60;99.90
24614;DHT22;12760;46.296;25.290;2023-07-31T13:49:07;26.70;99.90
24614;DHT22;12760;46.296;25.290;2023-07-31T13:51:33;26.60;99.90
24614;DHT22;12760;46.296;25.290;2023-07-31T13:53:59;26.50;99.90
24614;DHT22;12760;46.296;25.290;2023-07-31T13:56:24;26.70;99.90
24614;DHT22;12760;46.296;25.290;2023-07-31T13:58:50;26.80;99.90
24614;DHT22;12760;46.296;25.290;2023-07-31T14:01:16;26.80;99.90
24614;DHT22;12760;46.296;25.290;2023-07-31T14:03:41;26.60;99.90
24614;DHT22;12760;46.296;25.290;2023-07-31T14:06:07;26.40;99.90
24614;DHT22;12760;46.296;25.290;2023-07-31T14:08:33;26.30;99.90
24614;DHT22;12760;46.296;25.290;2023-07-31T14:10:58;25.60;99.90
24614;DHT22;12760;46.296;25.290;2023-07-31T14:13:24;25.30;99.90
24614;DHT22;12760;46.296;25.290;2023-07-31T14:15:50;24.80;99.90
24614;DHT22;12760;46.296;25.290;2023-07-31T14:18:15;24.30;99.90
24614;DHT22;12760;46.296;25.290;2023-07-31T14:20:41;24.20;99.90
24614;DHT22;12760;46.296;25.290;2023-07-31T14:23:07;24.00;99.90
24614;DHT22;12760;46.296;25.290;2023-07-31T14:25:32;24.00;99.90
24614;DHT22;12760;46.296;25.290;2023-07-31T14:27:58;24.00;99.90
24614;DHT22;12760;46.296;25.290;2023-07-31T14:30:24;23.90;99.90
24614;DHT22;12760;46.296;25.290;2023-07-31T14:32:50;23.90;99.90
24614;DHT22;12760;46.296;25.290;2023-07-31T14:35:16;23.80;99.90
24614;DHT22;12760;46.296;25.290;2023-07-31T14:37:44;23.70;99.90
24614;DHT22;12760;46.296;25.290;2023-07-31T14:40:11;23.50;99.90
24614;DHT22;12760;46.296;25.290;2023-07-31T14:42:38;23.10;99.90
24614;DHT22;12760;46.296;25.290;2023-07-31T14:45:05;23.20;99.90
24614;DHT22;12760;46.296;25.290;2023-07-31T14:47:31;23.30;99.90
24614;DHT22;12760;46.296;25.290;2023-07-31T14:49:58;23.30;99.90
24614;DHT22;12760;46.296;25.290;2023-07-31T14:52:24;23.40;99.90
24614;DHT22;12760;46.296;25.290;2023-07-31T14:54:49;23.40;99.90
24614;DHT22;12760;46.296;25.290;2023-07-31T14:57:15;23.50;99.90
24614;DHT22;12760;46.296;25.290;2023-07-31T14:59:41;23.50;99.90
24614;DHT22;12760;46.296;25.290;2023-07-31T15:02:08;23.60;99.90
24614;DHT22;12760;46.296;25.290;2023-07-31T15:04:34;23.60;99.90
24614;DHT22;12760;46.296;25.290;2023-07-31T15:07:00;23.60;99.90
24614;DHT22;12760;46.296;25.290;2023-07-31T15:09:26;23.60;99.90
24614;DHT22;12760;46.296;25.290;2023-07-31T15:11:52;23.60;99.90
24614;DHT22;12760;46.296;25.290;2023-07-31T15:14:17;23.50;99.90
24614;DHT22;12760;46.296;25.290;2023-07-31T15:16:43;23.30;99.90
24614;DHT22;12760;46.296;25.290;2023-07-31T15:19:09;23.20;99.90
24614;DHT22;12760;46.296;25.290;2023-07-31T15:21:36;23.20;99.90
24614;DHT22;12760;46.296;25.290;2023-07-31T15:24:02;23.30;99.90
24614;DHT22;12760;46.296;25.290;2023-07-31T15:26:28;23.30;99.90